Mount Eden, California
Current Conditions -  °F | °C
As of 11:54 PM on Sunday 23 Nov 2014 (Local Time) from KHWD Reporting Station
Clear Clear  
Wind Chill: 51°   Ceiling: Unl
Heat Index: 51°   Visibility: 10mi
Dew Point: 40°   Wind: 5mph
Humidity: 66%   Direction: 30°NNE
Pressure: 30.33"   Gusts: NA
Location:  37.6276°N, 122.104°W
Report Text: KHWD 240754Z AUTO 03004KT 10SM CLR 11/04 A3033 RMK AO2 SLP279 T01060044 401560078
Loading
Personal Weather Stations






























Interactive Weather Map New forecast layout! Learn more

10-Day Weather Forecast

Advertisements
Track Severe Weather on mobile